Time;durP1;ratioP1;P1;durP2;ratioP2;P2;SDS_P1;SDS_P2;PMS_P1;PMS_P2;Temp;Humidity;BMP_temperature;BMP_pressure;BME280_temperature;BME280_humidity;BME280_pressure;Samples;Min_cycle;Max_cycle;Signal;HPM_P1;HPM_P2
2022/09/11 00:00:56;;;;;;;14.85;13.45;;;17.20;99.90;;;;;;2554438;23;20005;-74
2022/09/11 00:01:56;;;;;;;16.83;15.23;;;17.20;99.90;;;;;;2567527;23;20657;-73
2022/09/11 00:02:57;;;;;;;14.10;12.80;;;17.20;99.90;;;;;;2567811;23;20131;-74
2022/09/11 00:03:58;;;;;;;17.33;15.60;;;17.20;99.90;;;;;;2567639;23;20004;-74
2022/09/11 00:04:59;;;;;;;15.65;14.25;;;17.20;99.90;;;;;;2567968;23;20024;-74
2022/09/11 00:06:02;;;;;;;13.45;12.05;;;17.20;99.90;;;;;;2567461;23;20004;-73
2022/09/11 00:07:03;;;;;;;13.55;12.35;;;17.20;99.90;;;;;;2567617;23;20772;-74
2022/09/11 00:08:04;;;;;;;17.60;15.50;;;17.10;99.90;;;;;;2554145;23;20413;-74
2022/09/11 00:09:05;;;;;;;16.88;15.27;;;17.10;99.90;;;;;;2554474;23;20001;-74
2022/09/11 00:10:06;;;;;;;14.85;13.35;;;17.10;99.90;;;;;;2567669;23;20467;-74
2022/09/11 00:11:09;;;;;;;13.35;12.23;;;17.10;99.90;;;;;;2567271;23;20545;-74
2022/09/11 00:12:11;;;;;;;17.23;15.63;;;17.10;99.90;;;;;;2567546;23;20437;-74
2022/09/11 00:13:15;;;;;;;17.73;16.20;;;17.10;99.90;;;;;;2567307;23;20730;-74
2022/09/11 00:14:15;;;;;;;17.35;15.85;;;17.10;99.90;;;;;;2567516;23;20001;-74
2022/09/11 00:15:16;;;;;;;17.85;16.25;;;17.00;99.90;;;;;;2554218;23;20005;-74
2022/09/11 00:16:19;;;;;;;18.30;16.73;;;17.00;99.90;;;;;;2554518;23;20012;-74
2022/09/11 00:17:20;;;;;;;17.92;16.33;;;17.00;99.90;;;;;;2554146;23;20101;-74
2022/09/11 00:18:21;;;;;;;18.05;16.25;;;17.00;99.90;;;;;;2554720;23;20710;-74
2022/09/11 00:19:22;;;;;;;15.63;14.32;;;17.00;99.90;;;;;;2567517;23;20387;-74
2022/09/11 00:20:22;;;;;;;17.58;15.73;;;17.00;99.90;;;;;;2566903;23;20452;-74
2022/09/11 00:21:24;;;;;;;18.23;16.52;;;17.00;99.90;;;;;;2567786;23;20040;-74
2022/09/11 00:22:26;;;;;;;15.13;13.93;;;17.00;99.90;;;;;;2567626;23;20019;-74
2022/09/11 00:23:27;;;;;;;18.73;17.08;;;17.00;99.90;;;;;;2566962;23;20004;-74
2022/09/11 00:24:28;;;;;;;16.23;14.65;;;16.90;99.90;;;;;;2567757;23;20615;-74
2022/09/11 00:25:29;;;;;;;18.55;16.85;;;16.90;99.90;;;;;;2567248;23;20012;-74
2022/09/11 00:26:29;;;;;;;18.98;15.65;;;16.90;99.90;;;;;;2567600;23;20040;-74
2022/09/11 00:27:30;;;;;;;16.30;14.85;;;16.90;99.90;;;;;;2567545;23;20055;-74
2022/09/11 00:28:31;;;;;;;17.23;15.80;;;16.90;99.90;;;;;;2567270;23;20608;-74
2022/09/11 00:29:32;;;;;;;17.33;15.63;;;16.90;99.90;;;;;;2567385;23;20005;-74
2022/09/11 00:30:32;;;;;;;17.80;16.27;;;16.90;99.90;;;;;;2554645;23;20001;-74
2022/09/11 00:31:33;;;;;;;17.48;15.77;;;16.90;99.90;;;;;;2554388;23;20008;-74
2022/09/11 00:32:34;;;;;;;16.13;14.82;;;16.80;99.90;;;;;;2567663;23;20007;-74
2022/09/11 00:33:35;;;;;;;15.93;14.63;;;16.80;99.90;;;;;;2567073;23;20007;-74
2022/09/11 00:34:35;;;;;;;15.75;14.35;;;16.80;99.90;;;;;;2567548;23;20330;-74
2022/09/11 00:35:36;;;;;;;14.13;12.80;;;16.80;99.90;;;;;;2567345;23;20028;-74
2022/09/11 00:36:40;;;;;;;14.80;13.23;;;16.80;99.90;;;;;;2566890;23;20004;-74
2022/09/11 00:37:40;;;;;;;16.55;15.05;;;16.80;99.90;;;;;;2567556;23;20004;-74
2022/09/11 00:38:41;;;;;;;17.48;15.88;;;16.80;99.90;;;;;;2567589;23;20004;-74
2022/09/11 00:39:42;;;;;;;18.15;16.60;;;16.70;99.90;;;;;;2567692;23;20155;-74
2022/09/11 00:40:47;;;;;;;17.30;15.63;;;16.70;99.90;;;;;;2567420;23;20074;-74
2022/09/11 00:41:48;;;;;;;17.45;15.90;;;16.70;99.90;;;;;;2567730;23;20011;-74
2022/09/11 00:42:52;;;;;;;17.13;15.73;;;16.70;99.90;;;;;;2567710;23;19997;-74
2022/09/11 00:44:03;;;;;;;16.85;15.15;;;16.70;99.90;;;;;;2567143;23;20051;-74
2022/09/11 00:45:06;;;;;;;14.85;13.45;;;16.70;99.90;;;;;;2567619;23;20009;-74
2022/09/11 00:46:07;;;;;;;15.32;13.93;;;16.70;99.90;;;;;;2567121;23;20020;-74
2022/09/11 00:47:08;;;;;;;17.25;15.82;;;16.60;99.90;;;;;;2567690;23;20081;-74
2022/09/11 00:48:10;;;;;;;17.17;15.63;;;16.60;99.90;;;;;;2567138;23;20047;-74
2022/09/11 00:49:26;;;;;;;14.77;13.38;;;16.70;99.90;;;;;;2567132;23;20001;-74
2022/09/11 00:50:29;;;;;;;13.02;12.02;;;16.60;99.90;;;;;;2567428;23;20091;-74
2022/09/11 00:51:34;;;;;;;14.23;13.05;;;16.60;99.90;;;;;;2554108;23;20004;-74
2022/09/11 00:52:40;;;;;;;15.63;14.32;;;16.60;99.90;;;;;;2542410;23;20005;-74
2022/09/11 00:53:41;;;;;;;14.25;13.05;;;16.60;99.90;;;;;;2554030;23;19997;-74
2022/09/11 00:55:26;;;;;;;12.52;11.48;;;16.60;99.90;;;;;;2554819;23;20084;-74
2022/09/11 00:56:30;;;;;;;16.42;14.73;;;16.50;99.90;;;;;;2516966;23;20030;-74
2022/09/11 00:57:35;;;;;;;15.63;14.15;;;16.50;99.90;;;;;;2541682;23;20001;-73
2022/09/11 00:58:41;;;;;;;16.92;15.43;;;16.50;99.90;;;;;;2554496;23;20076;-74
2022/09/11 00:59:44;;;;;;;14.68;13.18;;;16.50;99.90;;;;;;2554881;23;20804;-74
2022/09/11 01:00:45;;;;;;;13.98;12.85;;;16.50;99.90;;;;;;2555284;23;20365;-73
2022/09/11 01:01:45;;;;;;;14.93;13.73;;;16.50;99.90;;;;;;2555114;23;19997;-74
2022/09/11 01:02:48;;;;;;;16.50;15.15;;;16.40;99.90;;;;;;2554999;23;20010;-74
2022/09/11 01:03:49;;;;;;;15.73;14.27;;;16.50;99.90;;;;;;2553836;23;20088;-74
2022/09/11 01:04:50;;;;;;;16.70;14.98;;;16.40;99.90;;;;;;2554279;23;20001;-74
2022/09/11 01:05:53;;;;;;;16.73;15.18;;;16.40;99.90;;;;;;2554758;23;20096;-74
2022/09/11 01:06:56;;;;;;;18.98;16.48;;;16.40;99.90;;;;;;2554842;23;20012;-74
2022/09/11 01:07:56;;;;;;;15.40;13.90;;;16.40;99.90;;;;;;2555009;23;20009;-74
2022/09/11 01:08:58;;;;;;;16.65;15.05;;;16.40;99.90;;;;;;2555159;23;20059;-74
2022/09/11 01:09:58;;;;;;;14.25;13.05;;;16.40;99.90;;;;;;2554505;23;20004;-74
2022/09/11 01:11:04;;;;;;;13.70;12.50;;;16.40;99.90;;;;;;2553962;23;20005;-74
2022/09/11 01:12:23;;;;;;;14.82;13.52;;;16.40;99.90;;;;;;2554476;23;20410;-74
2022/09/11 01:13:26;;;;;;;16.38;14.88;;;16.40;99.90;;;;;;2554569;23;20006;-74
2022/09/11 01:14:39;;;;;;;17.92;13.95;;;16.30;99.90;;;;;;2555083;23;20076;-74
2022/09/11 01:15:42;;;;;;;16.65;15.02;;;16.30;99.90;;;;;;2553852;23;20044;-74
2022/09/11 01:16:53;;;;;;;15.70;14.23;;;16.30;99.90;;;;;;2554375;23;20095;-74
2022/09/11 01:18:15;;;;;;;15.40;14.07;;;16.30;99.90;;;;;;2554075;23;20009;-74
2022/09/11 01:19:31;;;;;;;16.23;14.77;;;16.30;99.90;;;;;;2554481;23;20026;-74
2022/09/11 01:20:35;;;;;;;16.02;14.73;;;16.30;99.90;;;;;;2554815;23;20028;-74
2022/09/11 01:21:51;;;;;;;15.00;13.43;;;16.20;99.90;;;;;;2554746;23;20001;-74
2022/09/11 01:22:52;;;;;;;12.50;11.40;;;16.20;99.90;;;;;;2554953;23;20013;-74
2022/09/11 01:24:18;;;;;;;14.38;13.13;;;16.20;99.90;;;;;;2554044;23;20008;-74
2022/09/11 01:25:35;;;;;;;15.85;14.18;;;16.20;99.90;;;;;;2554484;23;20001;-74
2022/09/11 01:26:51;;;;;;;15.82;14.52;;;16.20;99.90;;;;;;2554463;23;20008;-74
2022/09/11 01:27:55;;;;;;;15.13;13.82;;;16.20;99.90;;;;;;2554893;23;20051;-74
2022/09/11 01:29:01;;;;;;;15.43;13.82;;;16.20;99.90;;;;;;2555007;23;20051;-74
2022/09/11 01:30:24;;;;;;;14.15;12.95;;;16.10;99.90;;;;;;2554745;23;20012;-74
2022/09/11 01:31:30;;;;;;;15.45;14.15;;;16.10;99.90;;;;;;2553212;23;20013;-74
2022/09/11 01:32:37;;;;;;;13.77;12.57;;;16.10;99.90;;;;;;2542800;23;20006;-74
2022/09/11 01:33:44;;;;;;;14.63;13.23;;;16.10;99.90;;;;;;2553452;23;20322;-74
2022/09/11 01:34:55;;;;;;;14.82;13.52;;;16.10;99.90;;;;;;2554997;23;19997;-74
2022/09/11 01:36:12;;;;;;;15.27;13.80;;;16.10;99.90;;;;;;2554768;23;20013;-74
2022/09/11 01:37:24;;;;;;;16.20;14.75;;;16.10;99.90;;;;;;2555280;23;20045;-74
2022/09/11 01:38:41;;;;;;;13.00;11.90;;;16.10;99.90;;;;;;2554879;23;20607;-74
2022/09/11 01:39:48;;;;;;;12.30;11.30;;;16.10;99.90;;;;;;2555152;23;20804;-74
2022/09/11 01:40:54;;;;;;;15.55;12.70;;;16.10;99.90;;;;;;2554943;23;20540;-74
2022/09/11 01:42:11;;;;;;;15.68;14.27;;;16.10;99.90;;;;;;2554756;23;20056;-74
2022/09/11 01:43:16;;;;;;;17.00;15.45;;;16.10;99.90;;;;;;2554095;23;20388;-74
2022/09/11 01:44:25;;;;;;;14.32;13.00;;;16.10;99.90;;;;;;2554264;23;20084;-74
2022/09/11 01:45:26;;;;;;;15.15;13.90;;;16.10;99.90;;;;;;2554993;23;20005;-74
2022/09/11 01:46:27;;;;;;;16.40;14.13;;;16.10;99.90;;;;;;2554635;23;20016;-74
2022/09/11 01:47:32;;;;;;;16.98;15.48;;;16.10;99.90;;;;;;2555146;23;20082;-74
2022/09/11 01:48:41;;;;;;;16.60;15.02;;;16.20;99.90;;;;;;2554658;23;20032;-74
2022/09/11 01:50:08;;;;;;;14.88;13.45;;;16.20;99.90;;;;;;2554726;23;20024;-74
2022/09/11 01:51:16;;;;;;;14.23;12.88;;;16.20;99.90;;;;;;2555248;23;20684;-74
2022/09/11 01:52:26;;;;;;;12.98;11.77;;;16.20;99.90;;;;;;2556627;23;20011;-74
2022/09/11 01:53:35;;;;;;;16.58;15.07;;;16.10;99.90;;;;;;2553132;23;20013;-74
2022/09/11 01:54:45;;;;;;;16.85;15.25;;;16.20;99.90;;;;;;2553688;23;20009;-74
2022/09/11 01:55:54;;;;;;;13.57;12.38;;;16.20;99.90;;;;;;2553597;23;20012;-74
2022/09/11 01:57:01;;;;;;;14.23;13.00;;;16.20;99.90;;;;;;2555715;23;20001;-74
2022/09/11 01:58:07;;;;;;;13.68;12.48;;;16.20;99.90;;;;;;2566970;23;20018;-74
2022/09/11 01:59:13;;;;;;;14.82;13.48;;;16.20;99.90;;;;;;2554250;23;20023;-74
2022/09/11 02:00:14;;;;;;;15.88;14.52;;;16.30;99.90;;;;;;2553953;23;20005;-74
2022/09/11 02:01:23;;;;;;;16.02;14.68;;;16.20;99.90;;;;;;2553777;23;20053;-74
2022/09/11 02:02:32;;;;;;;13.80;12.38;;;16.30;99.90;;;;;;2554111;23;20001;-74
2022/09/11 02:03:44;;;;;;;13.60;12.43;;;16.30;99.90;;;;;;2555397;23;19997;-74
2022/09/11 02:04:50;;;;;;;15.90;14.40;;;16.30;99.90;;;;;;2553734;23;20009;-74
2022/09/11 02:05:59;;;;;;;14.05;12.88;;;16.30;99.90;;;;;;2555176;23;20005;-74
2022/09/11 02:07:11;;;;;;;12.68;11.50;;;16.30;99.90;;;;;;2553788;23;20107;-74
2022/09/11 02:08:17;;;;;;;16.52;14.80;;;16.30;99.90;;;;;;2554077;23;20005;-74
2022/09/11 02:09:22;;;;;;;12.90;11.70;;;16.30;99.90;;;;;;2554952;23;20001;-74
2022/09/11 02:10:29;;;;;;;17.27;15.73;;;16.30;99.90;;;;;;2553837;23;20009;-74
2022/09/11 02:11:37;;;;;;;13.48;12.38;;;16.40;99.90;;;;;;2554623;23;20447;-74
2022/09/11 02:12:45;;;;;;;14.50;13.18;;;16.40;99.90;;;;;;2567295;23;20058;-74
2022/09/11 02:13:56;;;;;;;15.68;14.27;;;16.40;99.90;;;;;;2553356;23;20613;-74
2022/09/11 02:14:58;;;;;;;14.60;13.25;;;16.40;99.90;;;;;;2555808;23;20005;-74
2022/09/11 02:16:25;;;;;;;13.95;12.75;;;16.40;99.90;;;;;;2553726;23;20120;-74
2022/09/11 02:17:53;;;;;;;11.80;10.70;;;16.40;99.90;;;;;;2559506;23;20463;-74
2022/09/11 02:19:10;;;;;;;16.40;15.10;;;16.40;99.90;;;;;;2567197;23;20031;-74
2022/09/11 02:20:10;;;;;;;13.80;12.70;;;16.40;99.90;;;;;;2567219;23;20012;-74
2022/09/11 02:21:11;;;;;;;16.25;14.85;;;16.40;99.90;;;;;;2567306;23;20059;-74
2022/09/11 02:22:11;;;;;;;16.90;15.43;;;16.40;99.90;;;;;;2567323;23;20381;-74
2022/09/11 02:23:14;;;;;;;14.02;12.82;;;16.40;99.90;;;;;;2553205;23;20016;-74
2022/09/11 02:24:15;;;;;;;16.15;14.70;;;16.50;99.90;;;;;;2554081;23;20055;-74
2022/09/11 02:25:16;;;;;;;16.17;14.68;;;16.50;99.90;;;;;;2567253;23;20004;-74
2022/09/11 02:26:20;;;;;;;14.85;13.45;;;16.50;99.90;;;;;;2566541;23;20032;-74
2022/09/11 02:27:23;;;;;;;16.70;14.88;;;16.50;99.90;;;;;;2566936;23;20421;-74
2022/09/11 02:28:24;;;;;;;18.23;16.63;;;16.50;99.90;;;;;;2566915;23;20009;-74
2022/09/11 02:29:25;;;;;;;18.15;16.15;;;16.50;99.90;;;;;;2567270;23;20007;-74
2022/09/11 02:30:26;;;;;;;18.73;16.25;;;16.50;99.90;;;;;;2553559;23;20017;-74
2022/09/11 02:31:27;;;;;;;17.08;15.65;;;16.60;99.90;;;;;;2554149;23;20041;-74
2022/09/11 02:32:29;;;;;;;14.70;13.20;;;16.60;99.90;;;;;;2567190;23;20015;-74
2022/09/11 02:33:34;;;;;;;12.98;11.98;;;16.60;99.90;;;;;;2566428;23;20333;-74
2022/09/11 02:34:37;;;;;;;16.95;15.25;;;16.60;99.90;;;;;;2566799;23;20029;-74
2022/09/11 02:35:44;;;;;;;14.27;12.80;;;16.60;99.90;;;;;;2567070;23;19996;-74
2022/09/11 02:37:12;;;;;;;14.30;12.98;;;16.60;99.90;;;;;;2554021;23;20012;-74
2022/09/11 02:38:23;;;;;;;18.33;16.63;;;16.60;99.90;;;;;;2559809;23;20001;-74
2022/09/11 02:39:52;;;;;;;16.52;15.05;;;16.60;99.90;;;;;;2567287;23;19997;-74
2022/09/11 02:41:01;;;;;;;13.73;12.07;;;16.60;99.90;;;;;;2553866;23;20064;-74
2022/09/11 02:42:27;;;;;;;15.60;14.23;;;16.50;99.90;;;;;;2556071;23;20001;-74
2022/09/11 02:43:45;;;;;;;14.70;13.50;;;16.60;99.90;;;;;;2566501;23;20008;-74
2022/09/11 02:44:58;;;;;;;12.80;11.57;;;16.50;99.90;;;;;;2566877;23;20000;-74
2022/09/11 02:46:19;;;;;;;18.38;16.77;;;16.50;99.90;;;;;;2567250;23;20011;-74
2022/09/11 02:47:28;;;;;;;17.33;15.65;;;16.50;99.90;;;;;;2567065;23;20001;-74
2022/09/11 02:48:31;;;;;;;18.40;16.63;;;16.50;99.90;;;;;;2552824;23;20036;-74
2022/09/11 02:49:59;;;;;;;15.13;13.77;;;16.50;99.90;;;;;;2554105;23;20013;-74
2022/09/11 02:51:28;;;;;;;16.40;14.82;;;16.50;99.90;;;;;;2566563;23;20008;-74
2022/09/11 02:52:48;;;;;;;17.33;15.77;;;16.50;99.90;;;;;;2566905;23;20495;-74
2022/09/11 02:53:54;;;;;;;17.63;15.85;;;16.50;99.90;;;;;;2552856;23;20005;-74
2022/09/11 02:55:07;;;;;;;19.30;17.50;;;16.50;99.90;;;;;;2555221;23;20035;-74
2022/09/11 02:56:22;;;;;;;16.23;14.70;;;16.60;99.90;;;;;;2566686;23;20384;-74
2022/09/11 02:57:31;;;;;;;17.35;15.75;;;16.50;99.90;;;;;;2566912;23;20024;-74
2022/09/11 02:58:38;;;;;;;16.52;15.05;;;16.50;99.90;;;;;;2567172;23;20046;-74
2022/09/11 02:59:43;;;;;;;19.58;17.60;;;16.50;99.90;;;;;;2566918;23;20004;-74
2022/09/11 03:00:46;;;;;;;19.85;16.65;;;16.60;99.90;;;;;;2566668;23;20028;-74
2022/09/11 03:01:59;;;;;;;15.85;14.45;;;16.60;99.90;;;;;;2567179;23;20123;-74
2022/09/11 03:02:59;;;;;;;17.38;15.85;;;16.60;99.90;;;;;;2566702;23;20087;-74
2022/09/11 03:04:00;;;;;;;19.20;17.17;;;16.60;99.90;;;;;;2567195;23;20004;-74
2022/09/11 03:05:00;;;;;;;18.05;16.42;;;16.50;99.90;;;;;;2567189;23;20043;-74
2022/09/11 03:06:01;;;;;;;18.23;16.58;;;16.60;99.90;;;;;;2566539;23;20020;-74
2022/09/11 03:07:02;;;;;;;17.50;15.98;;;16.60;99.90;;;;;;2566707;23;20012;-74
2022/09/11 03:08:03;;;;;;;15.10;13.80;;;16.60;99.90;;;;;;2566781;23;20079;-74
2022/09/11 03:09:03;;;;;;;18.10;16.52;;;16.60;99.90;;;;;;2566949;23;19996;-74
2022/09/11 03:10:05;;;;;;;17.88;16.38;;;16.60;99.90;;;;;;2567398;23;20035;-74
2022/09/11 03:11:07;;;;;;;14.43;13.23;;;16.60;99.90;;;;;;2567101;23;20325;-74
2022/09/11 03:12:09;;;;;;;14.88;13.50;;;16.60;99.90;;;;;;2567049;23;20009;-74
2022/09/11 03:13:09;;;;;;;13.55;12.35;;;16.60;99.90;;;;;;2566780;23;20437;-74
2022/09/11 03:14:10;;;;;;;20.23;18.23;;;16.60;99.90;;;;;;2567498;23;20379;-74
2022/09/11 03:15:11;;;;;;;18.98;17.17;;;16.60;99.90;;;;;;2566831;23;20322;-74
2022/09/11 03:16:12;;;;;;;17.30;15.73;;;16.60;99.90;;;;;;2566418;23;20059;-74
2022/09/11 03:17:12;;;;;;;18.05;16.38;;;16.60;99.90;;;;;;2553573;23;20001;-74
2022/09/11 03:18:14;;;;;;;19.58;17.77;;;16.60;99.90;;;;;;2553812;23;20012;-74
2022/09/11 03:19:15;;;;;;;20.58;18.65;;;16.60;99.90;;;;;;2567235;23;20007;-74
2022/09/11 03:20:19;;;;;;;20.35;18.42;;;16.60;99.90;;;;;;2553756;23;20005;-74
2022/09/11 03:21:19;;;;;;;18.50;16.67;;;16.60;99.90;;;;;;2554588;23;20739;-74
2022/09/11 03:22:20;;;;;;;17.55;15.82;;;16.60;99.90;;;;;;2567199;23;20337;-74
2022/09/11 03:23:20;;;;;;;19.70;17.70;;;16.60;99.90;;;;;;2566062;23;20001;-74
2022/09/11 03:24:21;;;;;;;19.48;17.67;;;16.60;99.90;;;;;;2566784;23;20011;-74
2022/09/11 03:25:27;;;;;;;20.13;18.13;;;16.60;99.90;;;;;;2567101;23;20027;-74
2022/09/11 03:26:28;;;;;;;16.67;15.18;;;16.60;99.90;;;;;;2566740;23;20003;-74
2022/09/11 03:27:29;;;;;;;19.10;17.27;;;16.60;99.90;;;;;;2567173;23;20661;-74
2022/09/11 03:28:30;;;;;;;18.05;16.42;;;16.60;99.90;;;;;;2553538;23;20009;-74
2022/09/11 03:29:30;;;;;;;16.02;14.63;;;16.60;99.90;;;;;;2554054;23;20422;-74
2022/09/11 03:30:32;;;;;;;17.35;15.73;;;16.70;99.90;;;;;;2566857;23;20001;-74
2022/09/11 03:31:33;;;;;;;17.48;15.80;;;16.60;99.90;;;;;;2566989;23;20003;-74
2022/09/11 03:32:33;;;;;;;18.60;16.70;;;16.70;99.90;;;;;;2553717;23;20005;-74
2022/09/11 03:33:34;;;;;;;17.42;15.93;;;16.70;99.90;;;;;;2553414;23;19993;-74
2022/09/11 03:34:35;;;;;;;18.30;16.67;;;16.70;99.90;;;;;;2566904;23;20011;-74
2022/09/11 03:35:35;;;;;;;19.02;17.10;;;16.70;99.90;;;;;;2567201;23;20007;-74
2022/09/11 03:36:36;;;;;;;18.70;17.02;;;16.70;99.90;;;;;;2553592;23;20001;-74
2022/09/11 03:37:37;;;;;;;19.08;17.38;;;16.70;99.90;;;;;;2554022;23;20068;-74
2022/09/11 03:38:37;;;;;;;18.88;17.25;;;16.70;99.90;;;;;;2566694;23;20000;-74
2022/09/11 03:39:38;;;;;;;20.27;18.48;;;16.70;99.90;;;;;;2566409;23;20032;-74
2022/09/11 03:40:42;;;;;;;19.65;17.17;;;16.70;99.90;;;;;;2566838;23;20028;-74
2022/09/11 03:41:42;;;;;;;17.20;15.70;;;16.70;99.90;;;;;;2567019;23;20076;-74
2022/09/11 03:42:43;;;;;;;18.33;16.73;;;16.70;99.90;;;;;;2566927;23;20004;-74
2022/09/11 03:43:43;;;;;;;19.48;17.77;;;16.70;99.90;;;;;;2553284;23;20036;-74
2022/09/11 03:44:44;;;;;;;18.38;16.75;;;16.70;99.90;;;;;;2554124;23;20009;-74
2022/09/11 03:45:48;;;;;;;19.63;17.73;;;16.70;99.90;;;;;;2566723;23;20448;-74
2022/09/11 03:46:49;;;;;;;20.55;18.45;;;16.70;99.90;;;;;;2554311;23;20027;-74
2022/09/11 03:47:49;;;;;;;18.63;17.02;;;16.80;99.90;;;;;;2554387;23;20009;-74
2022/09/11 03:48:51;;;;;;;19.60;17.75;;;16.80;99.90;;;;;;2554733;23;20040;-74
2022/09/11 03:49:52;;;;;;;20.33;18.38;;;16.80;99.90;;;;;;2567831;23;20007;-74
2022/09/11 03:50:53;;;;;;;20.65;18.42;;;16.80;99.90;;;;;;2554414;23;20009;-74
2022/09/11 03:51:53;;;;;;;16.65;14.98;;;16.80;99.90;;;;;;2554501;23;20005;-74
2022/09/11 03:52:54;;;;;;;17.40;15.80;;;16.80;99.90;;;;;;2567765;23;20100;-74
2022/09/11 03:53:55;;;;;;;21.00;18.92;;;16.80;99.90;;;;;;2554136;23;20001;-74
2022/09/11 03:54:56;;;;;;;23.45;21.27;;;16.80;99.90;;;;;;2554591;23;20027;-74
2022/09/11 03:55:57;;;;;;;21.25;19.25;;;16.80;99.90;;;;;;2567556;23;20024;-74
2022/09/11 03:56:58;;;;;;;20.15;18.35;;;16.80;99.90;;;;;;2554491;23;20009;-74
2022/09/11 03:57:59;;;;;;;24.80;22.40;;;16.90;99.90;;;;;;2554529;23;20025;-74
2022/09/11 03:58:59;;;;;;;26.00;23.50;;;16.90;99.90;;;;;;2568011;23;20011;-74
2022/09/11 04:00:03;;;;;;;25.38;22.85;;;16.90;99.90;;;;;;2567595;23;20062;-74
2022/09/11 04:01:11;;;;;;;26.25;23.52;;;16.90;99.90;;;;;;2568004;23;20079;-74
2022/09/11 04:02:11;;;;;;;30.20;27.02;;;16.90;99.90;;;;;;2567425;23;20432;-74
2022/09/11 04:03:14;;;;;;;25.55;22.77;;;16.90;99.90;;;;;;2553995;23;20013;-74
2022/09/11 04:04:15;;;;;;;24.40;20.17;;;16.90;99.90;;;;;;2555319;23;20005;-74
2022/09/11 04:05:15;;;;;;;26.45;23.60;;;16.90;99.90;;;;;;2567572;23;20079;-74
2022/09/11 04:06:16;;;;;;;25.70;23.30;;;16.90;99.90;;;;;;2567484;23;20000;-74
2022/09/11 04:07:17;;;;;;;30.40;27.35;;;16.90;99.90;;;;;;2567815;23;20333;-74
2022/09/11 04:08:17;;;;;;;29.70;26.58;;;16.90;99.90;;;;;;2567351;23;20175;-74
2022/09/11 04:09:18;;;;;;;27.67;24.75;;;17.00;99.90;;;;;;2567488;23;20445;-74
2022/09/11 04:10:19;;;;;;;36.85;31.58;;;17.00;99.90;;;;;;2567688;23;20009;-74
2022/09/11 04:11:19;;;;;;;39.83;31.65;;;17.00;99.90;;;;;;2567717;23;20094;-74
2022/09/11 04:12:20;;;;;;;38.90;33.28;;;17.00;99.90;;;;;;2554534;23;20060;-74
2022/09/11 04:13:26;;;;;;;40.47;34.55;;;17.00;99.90;;;;;;2553597;23;20060;-73
2022/09/11 04:14:26;;;;;;;39.58;33.63;;;17.00;99.90;;;;;;2555097;23;20001;-74
2022/09/11 04:15:27;;;;;;;42.15;34.40;;;17.00;99.90;;;;;;2567809;23;20007;-74
2022/09/11 04:16:31;;;;;;;44.83;36.47;;;17.00;99.90;;;;;;2567363;23;20005;-74
2022/09/11 04:17:32;;;;;;;41.58;36.17;;;17.00;99.90;;;;;;2567403;23;20452;-74
2022/09/11 04:18:35;;;;;;;48.75;37.03;;;17.00;99.90;;;;;;2567620;23;20398;-74
2022/09/11 04:19:35;;;;;;;47.53;38.08;;;17.00;99.90;;;;;;2567417;23;20015;-74
2022/09/11 04:20:39;;;;;;;43.22;34.55;;;17.00;99.90;;;;;;2554609;23;20091;-74
2022/09/11 04:21:41;;;;;;;45.22;36.50;;;17.10;99.90;;;;;;2554807;23;20139;-74
2022/09/11 04:22:41;;;;;;;42.58;36.05;;;17.10;99.90;;;;;;2567598;23;20421;-74
2022/09/11 04:23:44;;;;;;;48.13;37.92;;;17.10;99.90;;;;;;2567082;23;20001;-74
2022/09/11 04:24:45;;;;;;;43.17;37.63;;;17.10;99.90;;;;;;2567519;23;20107;-74
2022/09/11 04:25:46;;;;;;;45.28;36.88;;;17.10;99.90;;;;;;2567170;23;20000;-74
2022/09/11 04:26:47;;;;;;;44.38;37.33;;;17.10;99.90;;;;;;2567420;23;20004;-74
2022/09/11 04:27:48;;;;;;;49.80;36.72;;;17.10;99.90;;;;;;2567833;23;20005;-74
2022/09/11 04:28:49;;;;;;;50.30;38.33;;;17.10;99.90;;;;;;2567562;23;20093;-74
2022/09/11 04:29:50;;;;;;;51.45;40.63;;;17.10;99.90;;;;;;2567608;23;20000;-74
2022/09/11 04:30:51;;;;;;;48.60;38.70;;;17.10;99.90;;;;;;2567667;23;19997;-74
2022/09/11 04:31:51;;;;;;;46.50;37.80;;;17.20;99.90;;;;;;2567657;23;20485;-74
2022/09/11 04:32:52;;;;;;;50.25;40.45;;;17.20;99.90;;;;;;2567131;23;20019;-73
2022/09/11 04:33:53;;;;;;;46.67;39.60;;;17.20;99.90;;;;;;2567031;23;20009;-74
2022/09/11 04:34:54;;;;;;;53.00;42.15;;;17.20;99.90;;;;;;2567845;23;20011;-74
2022/09/11 04:35:54;;;;;;;64.60;41.85;;;17.20;99.90;;;;;;2567252;23;19997;-74
2022/09/11 04:36:55;;;;;;;42.67;33.00;;;17.20;99.90;;;;;;2554129;23;20079;-74
2022/09/11 04:37:56;;;;;;;44.25;39.38;;;17.20;99.90;;;;;;2554601;23;20064;-74
2022/09/11 04:38:58;;;;;;;45.83;39.92;;;17.20;99.90;;;;;;2554657;23;20013;-74
2022/09/11 04:39:59;;;;;;;47.95;38.75;;;17.20;99.90;;;;;;2554831;23;20458;-74
2022/09/11 04:41:01;;;;;;;48.55;38.75;;;17.20;99.90;;;;;;2567288;23;20369;-74
2022/09/11 04:42:03;;;;;;;44.88;37.17;;;17.20;99.90;;;;;;2567637;23;20012;-74
2022/09/11 04:43:05;;;;;;;43.42;37.00;;;17.30;99.90;;;;;;2553808;23;20020;-74
2022/09/11 04:44:05;;;;;;;50.72;39.75;;;17.20;99.90;;;;;;2554558;23;20493;-74
2022/09/11 04:45:06;;;;;;;44.20;37.72;;;17.30;99.90;;;;;;2567307;23;20531;-74
2022/09/11 04:46:13;;;;;;;42.63;37.00;;;17.30;99.90;;;;;;2567279;23;20017;-74
2022/09/11 04:47:15;;;;;;;43.45;36.22;;;17.30;99.90;;;;;;2566881;23;20091;-74
2022/09/11 04:48:16;;;;;;;44.60;37.63;;;17.30;99.90;;;;;;2567301;23;20008;-74
2022/09/11 04:49:16;;;;;;;45.90;38.35;;;17.30;99.90;;;;;;2554423;23;20017;-74
2022/09/11 04:50:18;;;;;;;44.53;37.88;;;17.30;99.90;;;;;;2554564;23;20449;-74
2022/09/11 04:51:30;;;;;;;47.15;39.25;;;17.30;99.90;;;;;;2567445;23;20075;-74
2022/09/11 04:52:32;;;;;;;46.83;38.10;;;17.30;99.90;;;;;;2567380;23;20033;-74
2022/09/11 04:53:36;;;;;;;47.60;39.92;;;17.30;99.90;;;;;;2567115;23;20008;-74
2022/09/11 04:54:37;;;;;;;43.28;37.47;;;17.30;99.90;;;;;;2567691;23;19997;-74
2022/09/11 04:55:37;;;;;;;50.42;39.72;;;17.40;99.90;;;;;;2567275;23;19996;-74
2022/09/11 04:56:38;;;;;;;45.80;38.20;;;17.40;99.90;;;;;;2567284;23;19997;-74
2022/09/11 04:57:38;;;;;;;42.85;37.10;;;17.40;99.90;;;;;;2553996;23;20441;-74
2022/09/11 04:58:41;;;;;;;37.20;32.17;;;17.40;99.90;;;;;;2554014;23;20059;-74
2022/09/11 04:59:42;;;;;;;45.22;36.40;;;17.40;99.90;;;;;;2567382;23;20005;-74
2022/09/11 05:00:42;;;;;;;41.50;35.85;;;17.40;99.90;;;;;;2567376;23;20000;-74
2022/09/11 05:01:43;;;;;;;44.85;36.15;;;17.40;99.90;;;;;;2554073;23;20016;-74
2022/09/11 05:02:43;;;;;;;50.60;38.90;;;17.40;99.90;;;;;;2554275;23;20080;-74
2022/09/11 05:03:44;;;;;;;50.53;39.60;;;17.40;99.90;;;;;;2566714;23;20000;-74
2022/09/11 05:04:44;;;;;;;48.05;38.00;;;17.40;99.90;;;;;;2567226;23;20585;-74
2022/09/11 05:05:45;;;;;;;45.63;39.47;;;17.40;99.90;;;;;;2553991;23;20095;-74
2022/09/11 05:06:47;;;;;;;44.40;36.88;;;17.40;99.90;;;;;;2554375;23;20008;-74
2022/09/11 05:07:49;;;;;;;42.65;36.88;;;17.40;99.90;;;;;;2553965;23;20001;-74
2022/09/11 05:08:49;;;;;;;44.28;36.13;;;17.40;99.90;;;;;;2566964;23;20058;-74
2022/09/11 05:09:53;;;;;;;46.92;39.30;;;17.40;99.90;;;;;;2567127;23;20000;-74
2022/09/11 05:10:54;;;;;;;39.42;32.75;;;17.50;99.90;;;;;;2567323;23;20016;-74
2022/09/11 05:11:55;;;;;;;47.50;37.47;;;17.50;99.90;;;;;;2567366;23;20012;-74
2022/09/11 05:12:56;;;;;;;44.97;38.15;;;17.40;99.90;;;;;;2567329;23;20052;-74
2022/09/11 05:13:59;;;;;;;45.47;38.00;;;17.50;99.90;;;;;;2566851;23;20088;-74
2022/09/11 05:15:00;;;;;;;51.17;40.33;;;17.50;99.90;;;;;;2554095;23;20833;-74
2022/09/11 05:16:05;;;;;;;48.05;39.22;;;17.50;99.90;;;;;;2554097;23;20377;-74
2022/09/11 05:17:05;;;;;;;48.08;38.65;;;17.50;99.90;;;;;;2566692;23;20008;-74
2022/09/11 05:18:06;;;;;;;44.90;37.33;;;17.50;99.90;;;;;;2567707;23;20024;-74
2022/09/11 05:19:06;;;;;;;47.50;38.65;;;17.50;99.90;;;;;;2567479;23;20521;-74
2022/09/11 05:20:07;;;;;;;48.55;40.65;;;17.50;99.90;;;;;;2567211;23;20025;-74
2022/09/11 05:21:13;;;;;;;51.70;41.50;;;17.50;99.90;;;;;;2567135;23;19997;-73
2022/09/11 05:22:14;;;;;;;45.95;37.53;;;17.50;99.90;;;;;;2554233;23;20055;-74
2022/09/11 05:23:15;;;;;;;45.78;38.35;;;17.50;99.90;;;;;;2553814;23;20797;-74
2022/09/11 05:24:15;;;;;;;48.42;39.00;;;17.50;99.90;;;;;;2554034;23;20116;-74
2022/09/11 05:25:17;;;;;;;47.00;38.70;;;17.50;99.90;;;;;;2553946;23;20012;-74
2022/09/11 05:26:22;;;;;;;48.35;38.38;;;17.60;99.90;;;;;;2553885;23;20124;-74
2022/09/11 05:27:23;;;;;;;44.35;37.22;;;17.60;99.90;;;;;;2555090;23;20541;-74